Wednesday, June 20, 2018, 9:18 PM GMT
Back to Local

CWFQ, Frelighsburg

Location: , , Canada Lat: 45.05
Local Time: 9:18 PM GMT (21:18 GMT) Lon: -72.833
Time Zone: GMT Elev: 498 ft

Show me the last for .
Show Coded

Time T Td Feel RH Dir Speed Gust Alt SLP Vis Weather Sky Remarks
2018-06-20 21:00 75 52 77 45 280° 3 - - 29.74 0 None
2018-06-20 20:00 75 52 77 45 240° 6 - - 29.76 0 None
2018-06-20 19:00 74 49 76 41 250° 6 - - 29.77 0 None
2018-06-20 18:00 73 53 76 48 230° 6 - - 29.79 0 None
2018-06-20 17:00 72 51 76 47 240° 6 - - 29.80 0 None
2018-06-20 16:00 71 54 76 53 240° 5 - - 29.83 0 None
2018-06-20 15:00 70 54 76 56 230° 3 - - 29.83 0 None
2018-06-20 14:00 67 52 - 57 240° 7 - - 29.85 0 None
2018-06-20 13:00 65 54 - 69 200° 5 - - 29.86 0 None
2018-06-20 12:00 61 51 - 68 170° 5 - - 29.87 0 None
2018-06-20 11:00 57 49 - 74 180° 5 - - 29.88 0 None
2018-06-20 10:00 53 49 - 85 170° 5 - - 29.88 0 None
2018-06-20 09:00 49 49 48 98 180° 3 - - 29.87 0 None
2018-06-20 08:00 53 48 - 84 170° 3 - - 29.86 0 None
2018-06-20 07:00 54 48 - 81 170° 5 - - 29.88 0 None
2018-06-20 06:00 54 50 - 84 180° 3 - - 29.89 0 None
2018-06-20 05:00 55 50 - 84 180° 3 - - 29.90 0 None
2018-06-20 04:00 57 50 - 77 180° 2 - - 29.90 0 None
2018-06-20 03:00 58 49 - 71 190° 2 - - 29.90 0 None
2018-06-20 02:00 60 50 - 70 210° 2 - - 29.90 0 None
2018-06-20 01:00 62 47 - 58 240° 1 - - 29.89 0 None
2018-06-20 00:00 65 49 - 56 260° 1 - - 29.88 0 None
2018-06-19 23:00 69 48 - 47 310° 3 - - 29.87 0 None
2018-06-19 22:00 70 49 - 48 310° 7 - - 29.85 0 None

Support USWX by starting your Amazon purchase here.